createdAt,value
2019-03-16T00:01:39.328Z,5.63
2019-03-16T00:04:05.823Z,6.23
2019-03-16T00:06:32.302Z,6.60
2019-03-16T00:08:58.823Z,6.43
2019-03-16T00:11:25.543Z,7.87
2019-03-16T00:13:51.986Z,8.00
2019-03-16T00:16:18.736Z,8.67
2019-03-16T00:18:46.010Z,8.50
2019-03-16T00:21:12.565Z,8.10
2019-03-16T00:23:39.103Z,8.40
2019-03-16T00:26:05.574Z,9.67
2019-03-16T00:28:32.286Z,8.23
2019-03-16T00:30:58.920Z,9.00
2019-03-16T00:33:25.804Z,10.27
2019-03-16T00:35:52.378Z,7.47
2019-03-16T00:38:18.866Z,7.37
2019-03-16T00:40:45.520Z,7.47
2019-03-16T00:43:12.009Z,7.70
2019-03-16T00:45:38.579Z,7.00
2019-03-16T00:48:05.080Z,7.13
2019-03-16T00:50:31.667Z,7.07
2019-03-16T00:52:58.255Z,7.00
2019-03-16T00:55:24.887Z,7.20
2019-03-16T00:57:51.379Z,6.57
2019-03-16T01:00:17.897Z,6.07
2019-03-16T01:02:44.629Z,6.27
2019-03-16T01:05:11.214Z,5.93
2019-03-16T01:07:38.067Z,5.53
2019-03-16T01:10:07.035Z,6.67
2019-03-16T01:12:33.719Z,5.47
2019-03-16T01:15:02.155Z,6.10
2019-03-16T01:17:28.650Z,5.43
2019-03-16T01:19:55.274Z,6.37
2019-03-16T01:22:21.914Z,7.07
2019-03-16T01:24:48.443Z,7.23
2019-03-16T01:27:16.066Z,6.63
2019-03-16T01:29:42.696Z,7.13
2019-03-16T01:32:09.126Z,6.07
2019-03-16T01:34:35.697Z,7.23
2019-03-16T01:37:02.238Z,5.87
2019-03-16T01:39:28.663Z,5.67
2019-03-16T01:41:55.430Z,5.07
2019-03-16T01:44:21.763Z,4.37
2019-03-16T01:46:48.457Z,4.30
2019-03-16T01:49:15.023Z,3.83
2019-03-16T01:51:41.645Z,3.83
2019-03-16T01:54:08.095Z,4.43
2019-03-16T01:56:34.973Z,3.70
2019-03-16T01:59:01.447Z,3.67
2019-03-16T02:01:27.827Z,4.07
2019-03-16T02:03:54.585Z,3.67
2019-03-16T02:06:21.209Z,3.80
2019-03-16T02:08:47.844Z,3.83
2019-03-16T02:11:14.490Z,4.63
2019-03-16T02:13:41.023Z,4.13
2019-03-16T02:16:11.193Z,4.00
2019-03-16T02:18:36.066Z,3.13
2019-03-16T02:21:02.813Z,3.40
2019-03-16T02:23:29.347Z,3.60
2019-03-16T02:25:55.870Z,3.43
2019-03-16T02:28:22.574Z,3.47
2019-03-16T02:30:49.130Z,2.90
2019-03-16T02:33:15.751Z,3.20
2019-03-16T02:35:42.383Z,3.33
2019-03-16T02:38:09.050Z,3.83
2019-03-16T02:40:35.547Z,2.80
2019-03-16T02:43:01.956Z,3.63
2019-03-16T02:45:28.493Z,4.17
2019-03-16T02:47:54.986Z,3.47
2019-03-16T02:50:21.595Z,3.30
2019-03-16T02:52:49.827Z,3.43
2019-03-16T02:55:16.302Z,3.20
2019-03-16T02:57:42.913Z,2.73
2019-03-16T03:00:11.467Z,3.10
2019-03-16T03:02:38.250Z,3.70
2019-03-16T03:05:06.596Z,2.87
2019-03-16T03:07:33.415Z,3.10
2019-03-16T03:09:59.799Z,2.80
2019-03-16T03:12:26.435Z,3.17
2019-03-16T03:14:52.964Z,2.67
2019-03-16T03:17:19.483Z,2.70
2019-03-16T03:19:45.776Z,3.03
2019-03-16T03:22:12.241Z,2.97
2019-03-16T03:24:43.806Z,2.93
2019-03-16T03:27:07.125Z,2.03
2019-03-16T03:29:33.702Z,2.13
2019-03-16T03:32:00.519Z,2.27
2019-03-16T03:34:27.137Z,2.20
2019-03-16T03:36:53.903Z,2.70
2019-03-16T03:39:20.472Z,2.30
2019-03-16T03:41:47.081Z,2.10
2019-03-16T03:44:13.714Z,2.27
2019-03-16T03:46:40.225Z,1.90
2019-03-16T03:49:06.730Z,2.07
2019-03-16T03:51:33.475Z,2.27
2019-03-16T03:54:00.074Z,2.20
2019-03-16T03:56:26.458Z,1.87
2019-03-16T03:58:53.342Z,1.53
2019-03-16T04:01:20.030Z,1.87
2019-03-16T04:03:46.815Z,1.63
2019-03-16T04:06:13.338Z,1.90
2019-03-16T04:08:39.904Z,2.17
2019-03-16T04:11:06.749Z,1.83
2019-03-16T04:13:33.352Z,1.60
2019-03-16T04:16:00.080Z,1.83
2019-03-16T04:18:26.653Z,1.60
2019-03-16T04:20:53.074Z,1.97
2019-03-16T04:23:19.618Z,1.73
2019-03-16T04:25:46.005Z,2.00
2019-03-16T04:28:12.802Z,1.93
2019-03-16T04:30:39.568Z,1.90
2019-03-16T04:33:06.231Z,1.80
2019-03-16T04:35:32.855Z,1.87
2019-03-16T04:38:00.582Z,1.93
2019-03-16T04:40:27.090Z,2.10
2019-03-16T04:42:53.887Z,1.90
2019-03-16T04:45:20.703Z,2.00
2019-03-16T04:47:47.442Z,2.40
2019-03-16T04:50:13.887Z,2.20
2019-03-16T04:52:40.370Z,1.90
2019-03-16T04:55:07.832Z,2.27
2019-03-16T04:57:34.359Z,2.13
2019-03-16T05:00:05.461Z,2.73
2019-03-16T05:02:31.843Z,2.37
2019-03-16T05:04:58.392Z,2.93
2019-03-16T05:07:24.776Z,2.67
2019-03-16T05:09:51.237Z,2.20
2019-03-16T05:12:17.788Z,2.40
2019-03-16T05:14:44.168Z,2.50
2019-03-16T05:17:10.814Z,2.87
2019-03-16T05:19:37.364Z,2.33
2019-03-16T05:22:03.867Z,2.43
2019-03-16T05:24:32.238Z,2.50
2019-03-16T05:26:58.865Z,2.63
2019-03-16T05:29:25.378Z,2.10
2019-03-16T05:31:51.843Z,2.40
2019-03-16T05:34:18.456Z,2.40
2019-03-16T05:36:45.070Z,2.73
2019-03-16T05:39:11.438Z,2.47
2019-03-16T05:41:37.830Z,2.47
2019-03-16T05:44:04.308Z,2.80
2019-03-16T05:46:30.720Z,2.70
2019-03-16T05:48:57.355Z,2.87
2019-03-16T05:51:23.927Z,3.00
2019-03-16T05:53:50.377Z,2.50
2019-03-16T05:56:16.795Z,2.30
2019-03-16T05:58:43.270Z,3.00
2019-03-16T06:01:09.912Z,2.90
2019-03-16T06:03:36.317Z,2.20
2019-03-16T06:06:02.965Z,1.90
2019-03-16T06:08:29.455Z,2.10
2019-03-16T06:10:55.870Z,2.03
2019-03-16T06:13:22.542Z,2.00
2019-03-16T06:15:49.056Z,1.80
2019-03-16T06:18:15.606Z,1.93
2019-03-16T06:20:41.973Z,2.10
2019-03-16T06:23:08.726Z,2.23
2019-03-16T06:25:35.233Z,2.40
2019-03-16T06:28:01.751Z,2.10
2019-03-16T06:30:28.251Z,1.90
2019-03-16T06:32:55.004Z,1.70
2019-03-16T06:35:24.870Z,1.93
2019-03-16T06:37:49.771Z,2.20
2019-03-16T06:40:16.348Z,1.70
2019-03-16T06:42:42.947Z,1.53
2019-03-16T06:45:10.348Z,1.57
2019-03-16T06:47:36.939Z,1.90
2019-03-16T06:50:06.991Z,1.70
2019-03-16T06:52:33.664Z,1.60
2019-03-16T06:55:00.401Z,1.80
2019-03-16T06:57:26.786Z,1.63
2019-03-16T06:59:53.405Z,1.20
2019-03-16T07:02:20.131Z,1.30
2019-03-16T07:04:46.704Z,1.27
2019-03-16T07:07:13.256Z,1.10
2019-03-16T07:09:39.969Z,1.10
2019-03-16T07:12:06.459Z,1.60
2019-03-16T07:14:33.145Z,1.30
2019-03-16T07:17:02.416Z,1.13
2019-03-16T07:19:29.294Z,1.33
2019-03-16T07:21:55.925Z,1.20
2019-03-16T07:24:22.759Z,1.23
2019-03-16T07:26:49.113Z,1.50
2019-03-16T07:29:15.527Z,1.20
2019-03-16T07:31:43.774Z,1.30
2019-03-16T07:34:10.213Z,1.10
2019-03-16T07:36:36.813Z,1.20
2019-03-16T07:39:05.202Z,1.00
2019-03-16T07:41:31.803Z,1.30
2019-03-16T07:43:58.195Z,1.20
2019-03-16T07:46:24.688Z,1.50
2019-03-16T07:48:51.102Z,0.97
2019-03-16T07:51:17.643Z,1.20
2019-03-16T07:53:44.108Z,1.20
2019-03-16T07:56:10.472Z,0.97
2019-03-16T07:58:37.360Z,1.23
2019-03-16T08:01:03.840Z,1.23
2019-03-16T08:03:30.278Z,1.50
2019-03-16T08:05:56.773Z,1.37
2019-03-16T08:08:23.174Z,2.33
2019-03-16T08:10:49.713Z,1.20
2019-03-16T08:13:16.200Z,1.20
2019-03-16T08:15:42.889Z,1.23
2019-03-16T08:18:09.229Z,1.37
2019-03-16T08:20:35.968Z,1.20
2019-03-16T08:23:02.560Z,1.40
2019-03-16T08:25:29.245Z,1.20
2019-03-16T08:27:57.018Z,1.40
2019-03-16T08:30:23.908Z,1.20
2019-03-16T08:32:50.447Z,1.50
2019-03-16T08:35:17.113Z,1.30
2019-03-16T08:37:43.748Z,1.53
2019-03-16T08:40:10.589Z,1.30
2019-03-16T08:42:37.310Z,1.67
2019-03-16T08:45:05.731Z,1.53
2019-03-16T08:47:32.183Z,1.13
2019-03-16T08:49:58.718Z,1.63
2019-03-16T08:52:25.206Z,1.13
2019-03-16T08:54:51.778Z,1.20
2019-03-16T08:57:18.124Z,1.20
2019-03-16T08:59:44.884Z,1.07
2019-03-16T09:02:11.296Z,1.00
2019-03-16T09:04:38.051Z,1.20
2019-03-16T09:07:04.506Z,0.90
2019-03-16T09:09:31.347Z,1.00
2019-03-16T09:11:58.369Z,1.20
2019-03-16T09:14:25.211Z,1.20
2019-03-16T09:16:51.662Z,1.60
2019-03-16T09:19:18.213Z,0.80
2019-03-16T09:21:44.741Z,1.00
2019-03-16T09:24:11.287Z,1.13
2019-03-16T09:26:37.903Z,0.90
2019-03-16T09:29:14.304Z,1.63
2019-03-16T09:31:32.872Z,1.00
2019-03-16T09:33:59.609Z,1.13
2019-03-16T09:36:26.307Z,1.07
2019-03-16T09:38:54.959Z,1.20
2019-03-16T09:41:21.430Z,1.30
2019-03-16T09:43:48.097Z,1.07
2019-03-16T09:46:14.987Z,1.00
2019-03-16T09:48:43.430Z,1.10
2019-03-16T09:51:09.974Z,1.20
2019-03-16T09:53:36.893Z,1.60
2019-03-16T09:56:05.572Z,0.93
2019-03-16T09:58:32.442Z,1.20
2019-03-16T10:00:59.110Z,1.20
2019-03-16T10:03:25.692Z,1.53
2019-03-16T10:05:52.371Z,1.20
2019-03-16T10:08:19.398Z,1.20
2019-03-16T10:10:45.885Z,1.33
2019-03-16T10:13:12.479Z,1.10
2019-03-16T10:15:39.070Z,1.40
2019-03-16T10:18:05.675Z,1.30
2019-03-16T10:20:32.392Z,1.10
2019-03-16T10:22:58.941Z,1.20
2019-03-16T10:25:25.509Z,1.10
2019-03-16T10:27:52.033Z,1.20
2019-03-16T10:30:18.643Z,1.70
2019-03-16T10:32:45.383Z,1.20
2019-03-16T10:35:11.775Z,2.03
2019-03-16T10:37:38.437Z,1.30
2019-03-16T10:40:12.857Z,1.30
2019-03-16T10:42:39.530Z,1.17
2019-03-16T10:45:07.503Z,1.30
2019-03-16T10:47:34.204Z,1.20
2019-03-16T10:50:00.861Z,1.30
2019-03-16T10:52:27.731Z,1.40
2019-03-16T10:54:54.385Z,1.23
2019-03-16T10:57:20.997Z,1.07
2019-03-16T10:59:50.158Z,1.20
2019-03-16T11:02:16.776Z,1.40
2019-03-16T11:04:43.357Z,1.37
2019-03-16T11:07:09.990Z,1.53
2019-03-16T11:09:36.459Z,1.70
2019-03-16T11:12:04.241Z,1.53
2019-03-16T11:14:30.769Z,1.23
2019-03-16T11:16:57.359Z,1.63
2019-03-16T11:19:24.127Z,1.33
2019-03-16T11:21:50.922Z,1.20
2019-03-16T11:24:17.554Z,1.87
2019-03-16T11:26:44.046Z,1.40
2019-03-16T11:29:10.594Z,1.30
2019-03-16T11:31:37.102Z,1.20
2019-03-16T11:34:03.652Z,1.73
2019-03-16T11:36:30.101Z,1.77
2019-03-16T11:38:56.722Z,1.27
2019-03-16T11:41:23.311Z,2.07
2019-03-16T11:43:49.883Z,1.90
2019-03-16T11:46:16.512Z,1.60
2019-03-16T11:48:42.915Z,1.57
2019-03-16T11:51:09.287Z,1.67
2019-03-16T11:53:36.022Z,1.70
2019-03-16T11:56:02.577Z,2.27
2019-03-16T11:58:28.970Z,1.93
2019-03-16T12:00:55.534Z,1.40
2019-03-16T12:03:22.030Z,1.67
2019-03-16T12:05:48.703Z,2.97
2019-03-16T12:08:15.204Z,1.40
2019-03-16T12:10:41.623Z,1.30
2019-03-16T12:13:17.170Z,1.20
2019-03-16T12:15:36.516Z,1.73
2019-03-16T12:18:03.039Z,1.90
2019-03-16T12:20:29.525Z,1.43
2019-03-16T12:22:56.415Z,1.80
2019-03-16T12:25:22.921Z,1.50
2019-03-16T12:27:49.308Z,1.50
2019-03-16T12:30:15.808Z,1.90
2019-03-16T12:32:42.319Z,1.50
2019-03-16T12:35:08.937Z,1.20
2019-03-16T12:37:35.458Z,2.00
2019-03-16T12:40:02.532Z,2.10
2019-03-16T12:42:29.099Z,1.70
2019-03-16T12:44:55.579Z,1.60
2019-03-16T12:47:22.023Z,1.20
2019-03-16T12:49:48.456Z,1.60
2019-03-16T12:52:15.098Z,1.20
2019-03-16T12:54:41.719Z,1.80
2019-03-16T12:57:08.144Z,1.30
2019-03-16T12:59:46.217Z,1.23
2019-03-16T13:02:03.184Z,1.40
2019-03-16T13:04:29.719Z,1.43
2019-03-16T13:06:56.314Z,1.40
2019-03-16T13:09:22.691Z,1.50
2019-03-16T13:11:49.072Z,1.70
2019-03-16T13:14:15.486Z,1.23
2019-03-16T13:16:42.049Z,1.33
2019-03-16T13:19:08.413Z,1.30
2019-03-16T13:21:34.865Z,0.87
2019-03-16T13:24:01.242Z,1.20
2019-03-16T13:26:27.512Z,1.30
2019-03-16T13:28:53.954Z,1.80
2019-03-16T13:31:20.398Z,1.70
2019-03-16T13:33:47.034Z,1.10
2019-03-16T13:36:13.500Z,1.27
2019-03-16T13:38:39.963Z,1.87
2019-03-16T13:41:07.874Z,1.30
2019-03-16T13:43:34.413Z,1.20
2019-03-16T13:46:00.795Z,1.20
2019-03-16T13:48:27.284Z,1.27
2019-03-16T13:50:53.923Z,0.90
2019-03-16T13:53:20.376Z,0.80
2019-03-16T13:55:47.069Z,0.90
2019-03-16T13:58:13.631Z,1.33
2019-03-16T14:00:40.089Z,1.47
2019-03-16T14:03:06.831Z,1.10
2019-03-16T14:05:33.511Z,0.77
2019-03-16T14:08:00.135Z,0.90
2019-03-16T14:10:31.233Z,1.33
2019-03-16T14:12:57.761Z,1.57
2019-03-16T14:15:24.360Z,1.40
2019-03-16T14:17:50.809Z,0.93
2019-03-16T14:20:17.610Z,1.10
2019-03-16T14:22:45.152Z,1.83
2019-03-16T14:25:11.615Z,1.10
2019-03-16T14:27:38.305Z,1.00
2019-03-16T14:30:34.753Z,1.13
2019-03-16T14:32:44.210Z,1.47
2019-03-16T14:35:10.746Z,1.00
2019-03-16T14:37:37.390Z,1.10
2019-03-16T14:40:06.334Z,1.30
2019-03-16T14:42:32.862Z,2.13
2019-03-16T14:44:59.237Z,1.47
2019-03-16T14:47:25.812Z,1.10
2019-03-16T14:49:52.226Z,1.53
2019-03-16T14:52:18.843Z,1.90
2019-03-16T14:54:45.259Z,1.30
2019-03-16T14:57:11.545Z,1.17
2019-03-16T14:59:37.954Z,1.43
2019-03-16T15:02:04.424Z,1.33
2019-03-16T15:04:31.161Z,1.53
2019-03-16T15:06:57.751Z,2.07
2019-03-16T15:09:24.352Z,1.40
2019-03-16T15:11:50.841Z,1.80
2019-03-16T15:14:21.961Z,1.30
2019-03-16T15:16:45.639Z,2.43
2019-03-16T15:19:11.947Z,1.33
2019-03-16T15:21:38.521Z,1.47
2019-03-16T15:24:04.990Z,1.17
2019-03-16T15:26:31.259Z,2.03
2019-03-16T15:28:57.788Z,1.30
2019-03-16T15:31:24.193Z,1.63
2019-03-16T15:33:50.740Z,1.97
2019-03-16T15:36:17.205Z,1.37
2019-03-16T15:38:43.591Z,1.30
2019-03-16T15:41:10.162Z,1.00
2019-03-16T15:43:36.647Z,1.40
2019-03-16T15:46:03.382Z,1.40
2019-03-16T15:48:29.942Z,1.87
2019-03-16T15:50:56.457Z,1.17
2019-03-16T15:53:23.094Z,1.27
2019-03-16T15:55:49.578Z,1.27
2019-03-16T15:58:16.138Z,1.80
2019-03-16T16:00:42.688Z,1.10
2019-03-16T16:03:11.046Z,1.20
2019-03-16T16:05:37.548Z,1.40
2019-03-16T16:08:04.159Z,1.63
2019-03-16T16:10:30.718Z,1.63
2019-03-16T16:12:57.231Z,1.47
2019-03-16T16:15:23.729Z,1.17
2019-03-16T16:17:50.064Z,2.37
2019-03-16T16:20:17.252Z,1.10
2019-03-16T16:22:43.750Z,1.30
2019-03-16T16:25:11.301Z,1.37
2019-03-16T16:27:37.767Z,1.00
2019-03-16T16:30:10.518Z,2.97
2019-03-16T16:32:36.906Z,1.47
2019-03-16T16:35:05.224Z,1.40
2019-03-16T16:37:31.654Z,1.07
2019-03-16T16:39:58.229Z,1.40
2019-03-16T16:42:24.592Z,1.23
2019-03-16T16:44:51.136Z,1.47
2019-03-16T16:47:17.601Z,1.83
2019-03-16T16:49:44.189Z,1.83
2019-03-16T16:52:10.827Z,2.00
2019-03-16T16:54:37.787Z,2.60
2019-03-16T16:57:04.263Z,2.10
2019-03-16T16:59:30.629Z,1.63
2019-03-16T17:01:57.111Z,2.20
2019-03-16T17:04:23.593Z,2.70
2019-03-16T17:06:49.875Z,2.50
2019-03-16T17:09:16.285Z,1.90
2019-03-16T17:11:42.564Z,1.60
2019-03-16T17:14:09.077Z,1.60
2019-03-16T17:16:35.426Z,1.70
2019-03-16T17:19:01.912Z,1.57
2019-03-16T17:21:28.332Z,1.67
2019-03-16T17:23:54.821Z,1.43
2019-03-16T17:26:21.486Z,1.40
2019-03-16T17:28:47.979Z,1.70
2019-03-16T17:31:14.452Z,2.70
2019-03-16T17:33:40.972Z,2.30
2019-03-16T17:36:07.347Z,2.30
2019-03-16T17:38:33.920Z,2.33
2019-03-16T17:41:00.412Z,2.53
2019-03-16T17:43:26.919Z,1.93
2019-03-16T17:45:53.428Z,1.93
2019-03-16T17:48:19.836Z,4.53
2019-03-16T17:50:46.236Z,2.60
2019-03-16T17:53:12.719Z,2.40
2019-03-16T17:55:39.189Z,1.80
2019-03-16T17:58:05.646Z,4.50
2019-03-16T18:00:32.327Z,1.77
2019-03-16T18:02:58.918Z,1.80
2019-03-16T18:05:25.487Z,3.43
2019-03-16T18:07:51.952Z,2.00
2019-03-16T18:10:18.467Z,2.40
2019-03-16T18:12:44.961Z,1.77
2019-03-16T18:15:18.739Z,1.93
2019-03-16T18:17:45.214Z,1.83
2019-03-16T18:20:12.763Z,1.87
2019-03-16T18:22:39.263Z,2.23
2019-03-16T18:25:08.520Z,3.30
2019-03-16T18:27:34.975Z,3.30
2019-03-16T18:30:01.611Z,3.70
2019-03-16T18:32:28.133Z,3.40
2019-03-16T18:34:54.465Z,2.30
2019-03-16T18:37:20.918Z,2.30
2019-03-16T18:39:47.388Z,1.87
2019-03-16T18:42:13.674Z,2.30
2019-03-16T18:44:40.187Z,2.17
2019-03-16T18:47:06.706Z,2.80
2019-03-16T18:49:33.339Z,2.60
2019-03-16T18:51:59.623Z,4.20
2019-03-16T18:54:26.040Z,4.07
2019-03-16T18:56:52.296Z,2.50
2019-03-16T18:59:18.576Z,3.70
2019-03-16T19:01:45.033Z,10.83
2019-03-16T19:04:11.573Z,3.23
2019-03-16T19:06:38.027Z,3.40
2019-03-16T19:09:06.122Z,3.13
2019-03-16T19:11:32.726Z,3.77
2019-03-16T19:13:58.958Z,2.40
2019-03-16T19:16:25.255Z,3.30
2019-03-16T19:18:51.745Z,3.67
2019-03-16T19:21:18.228Z,3.90
2019-03-16T19:23:44.738Z,3.50
2019-03-16T19:26:11.350Z,2.80
2019-03-16T19:28:37.719Z,2.77
2019-03-16T19:31:03.983Z,2.60
2019-03-16T19:33:30.587Z,2.93
2019-03-16T19:35:56.937Z,4.37
2019-03-16T19:38:23.447Z,4.60
2019-03-16T19:40:49.866Z,4.77
2019-03-16T19:43:16.335Z,2.80
2019-03-16T19:45:42.749Z,3.27
2019-03-16T19:48:09.155Z,3.20
2019-03-16T19:50:35.525Z,6.20
2019-03-16T19:53:02.084Z,4.47
2019-03-16T19:55:28.342Z,3.20
2019-03-16T19:57:54.781Z,3.43
2019-03-16T20:00:21.406Z,3.20
2019-03-16T20:02:51.360Z,3.10
2019-03-16T20:05:16.256Z,4.03
2019-03-16T20:07:42.771Z,3.83
2019-03-16T20:10:11.558Z,3.83
2019-03-16T20:12:38.031Z,3.17
2019-03-16T20:15:07.217Z,3.40
2019-03-16T20:17:33.673Z,3.30
2019-03-16T20:20:00.490Z,3.90
2019-03-16T20:22:26.784Z,2.80
2019-03-16T20:24:53.301Z,2.70
2019-03-16T20:27:19.841Z,3.47
2019-03-16T20:29:48.113Z,3.83
2019-03-16T20:32:14.780Z,3.40
2019-03-16T20:34:41.146Z,3.30
2019-03-16T20:37:07.541Z,3.20
2019-03-16T20:39:34.349Z,3.27
2019-03-16T20:42:02.006Z,2.93
2019-03-16T20:44:29.508Z,3.70
2019-03-16T20:46:56.073Z,2.93
2019-03-16T20:49:22.677Z,3.77
2019-03-16T20:51:49.125Z,3.17
2019-03-16T20:54:15.436Z,4.33
2019-03-16T20:56:41.799Z,3.60
2019-03-16T20:59:08.322Z,4.03
2019-03-16T21:01:35.026Z,3.40
2019-03-16T21:04:01.491Z,3.63
2019-03-16T21:06:27.942Z,4.37
2019-03-16T21:09:03.112Z,5.20
2019-03-16T21:11:22.644Z,4.57
2019-03-16T21:13:48.917Z,4.00
2019-03-16T21:16:15.314Z,4.60
2019-03-16T21:18:41.719Z,2.60
2019-03-16T21:21:08.274Z,3.70
2019-03-16T21:23:34.867Z,3.50
2019-03-16T21:26:03.285Z,3.17
2019-03-16T21:28:29.715Z,3.33
2019-03-16T21:30:56.125Z,4.20
2019-03-16T21:33:29.458Z,4.33
2019-03-16T21:35:50.878Z,4.57
2019-03-16T21:38:17.430Z,3.33
2019-03-16T21:40:44.053Z,2.07
2019-03-16T21:43:10.457Z,2.20
2019-03-16T21:45:37.120Z,3.23
2019-03-16T21:48:03.647Z,2.47
2019-03-16T21:50:30.144Z,4.00
2019-03-16T21:52:56.507Z,2.00
2019-03-16T21:55:22.933Z,2.63
2019-03-16T21:57:49.374Z,1.80
2019-03-16T22:00:16.281Z,3.37
2019-03-16T22:02:42.850Z,2.50
2019-03-16T22:05:09.467Z,1.80
2019-03-16T22:07:36.042Z,2.13
2019-03-16T22:10:04.381Z,1.97
2019-03-16T22:12:30.991Z,2.67
2019-03-16T22:14:57.428Z,2.30
2019-03-16T22:17:24.110Z,2.60
2019-03-16T22:19:50.477Z,2.93
2019-03-16T22:22:16.962Z,2.70
2019-03-16T22:24:43.455Z,3.30
2019-03-16T22:27:09.845Z,3.10
2019-03-16T22:29:36.253Z,3.43
2019-03-16T22:32:02.829Z,3.63
2019-03-16T22:34:29.264Z,3.93
2019-03-16T22:36:55.736Z,3.80
2019-03-16T22:39:22.234Z,3.20
2019-03-16T22:41:48.575Z,4.20
2019-03-16T22:44:15.043Z,3.90
2019-03-16T22:46:41.411Z,4.50
2019-03-16T22:49:07.798Z,3.70
2019-03-16T22:51:34.472Z,3.63
2019-03-16T22:54:01.087Z,4.23
2019-03-16T22:56:27.352Z,3.30
2019-03-16T22:58:53.727Z,3.67
2019-03-16T23:01:20.331Z,4.17
2019-03-16T23:03:46.698Z,4.73
2019-03-16T23:06:13.304Z,5.33
2019-03-16T23:08:39.813Z,3.07
2019-03-16T23:11:06.181Z,4.47
2019-03-16T23:13:32.678Z,3.40
2019-03-16T23:15:59.112Z,3.40
2019-03-16T23:18:25.460Z,3.37
2019-03-16T23:20:51.851Z,3.60
2019-03-16T23:23:18.307Z,3.17
2019-03-16T23:25:44.802Z,2.50
2019-03-16T23:28:11.339Z,3.10
2019-03-16T23:30:37.918Z,3.07
2019-03-16T23:33:04.412Z,3.63
2019-03-16T23:35:30.889Z,3.23
2019-03-16T23:37:57.391Z,2.90
2019-03-16T23:40:24.034Z,3.40
2019-03-16T23:42:50.456Z,2.70
2019-03-16T23:45:16.698Z,2.63
2019-03-16T23:47:43.157Z,2.53
2019-03-16T23:50:10.612Z,2.83
2019-03-16T23:52:37.341Z,2.60
2019-03-16T23:55:05.094Z,2.60
2019-03-16T23:57:31.777Z,2.73
2019-03-16T23:59:58.348Z,2.40
